sensor_id;sensor_type;location;lat;lon;timestamp;pressure;altitude;pressure_sealevel;temperature;humidity
25526;BME280;13424;48.424;11.258;2023-05-11T00:00:44;95413.53;;;13.56;84.22
25526;BME280;13424;48.424;11.258;2023-05-11T00:03:10;95411.56;;;13.41;84.38
25526;BME280;13424;48.424;11.258;2023-05-11T00:05:36;95412.41;;;13.47;84.42
25526;BME280;13424;48.424;11.258;2023-05-11T00:08:01;95404.09;;;13.43;85.65
25526;BME280;13424;48.424;11.258;2023-05-11T00:10:28;95406.81;;;13.58;84.34
25526;BME280;13424;48.424;11.258;2023-05-11T00:13:50;95405.16;;;13.37;84.62
25526;BME280;13424;48.424;11.258;2023-05-11T00:16:16;95403.59;;;13.56;84.18
25526;BME280;13424;48.424;11.258;2023-05-11T00:18:41;95402.47;;;13.42;84.61
25526;BME280;13424;48.424;11.258;2023-05-11T00:21:07;95402.78;;;13.46;84.47
25526;BME280;13424;48.424;11.258;2023-05-11T00:23:33;95403.84;;;13.50;84.26
25526;BME280;13424;48.424;11.258;2023-05-11T00:26:05;95398.53;;;13.60;84.20
25526;BME280;13424;48.424;11.258;2023-05-11T00:28:31;95397.22;;;13.67;83.67
25526;BME280;13424;48.424;11.258;2023-05-11T00:30:57;95390.78;;;13.63;83.82
25526;BME280;13424;48.424;11.258;2023-05-11T00:33:23;95386.16;;;13.44;85.11
25526;BME280;13424;48.424;11.258;2023-05-11T00:35:50;95384.22;;;13.34;85.40
25526;BME280;13424;48.424;11.258;2023-05-11T00:38:16;95380.53;;;13.50;84.62
25526;BME280;13424;48.424;11.258;2023-05-11T00:40:42;95383.59;;;13.17;85.57
25526;BME280;13424;48.424;11.258;2023-05-11T00:43:07;95379.44;;;13.41;85.03
25526;BME280;13424;48.424;11.258;2023-05-11T00:45:34;95384.72;;;13.26;85.69
25526;BME280;13424;48.424;11.258;2023-05-11T00:48:00;95375.66;;;13.32;84.88
25526;BME280;13424;48.424;11.258;2023-05-11T00:50:26;95377.56;;;12.89;87.15
25526;BME280;13424;48.424;11.258;2023-05-11T00:52:53;95380.34;;;13.09;86.36
25526;BME280;13424;48.424;11.258;2023-05-11T00:58:46;95380.16;;;13.21;85.88
25526;BME280;13424;48.424;11.258;2023-05-11T01:01:13;95382.03;;;13.21;85.51
25526;BME280;13424;48.424;11.258;2023-05-11T01:03:42;95381.41;;;13.08;86.55
25526;BME280;13424;48.424;11.258;2023-05-11T01:08:50;95385.53;;;13.26;86.03
25526;BME280;13424;48.424;11.258;2023-05-11T01:14:38;95385.09;;;13.45;84.65
25526;BME280;13424;48.424;11.258;2023-05-11T01:17:10;95384.56;;;13.48;84.75
25526;BME280;13424;48.424;11.258;2023-05-11T01:20:04;95382.63;;;13.33;84.68
25526;BME280;13424;48.424;11.258;2023-05-11T01:28:44;95375.09;;;13.25;85.53
25526;BME280;13424;48.424;11.258;2023-05-11T01:31:14;95379.94;;;13.33;84.83
25526;BME280;13424;48.424;11.258;2023-05-11T01:33:54;95374.88;;;13.41;85.20
25526;BME280;13424;48.424;11.258;2023-05-11T01:36:26;95378.84;;;13.24;85.52
25526;BME280;13424;48.424;11.258;2023-05-11T01:38:52;95371.47;;;13.51;84.71
25526;BME280;13424;48.424;11.258;2023-05-11T01:41:19;95386.50;;;13.67;83.72
25526;BME280;13424;48.424;11.258;2023-05-11T01:43:54;95375.75;;;13.62;83.60
25526;BME280;13424;48.424;11.258;2023-05-11T01:46:24;95380.28;;;13.52;83.57
25526;BME280;13424;48.424;11.258;2023-05-11T01:48:53;95377.06;;;13.50;84.36
25526;BME280;13424;48.424;11.258;2023-05-11T01:55:07;95382.19;;;13.66;83.04
25526;BME280;13424;48.424;11.258;2023-05-11T01:57:35;95377.63;;;13.62;83.09
25526;BME280;13424;48.424;11.258;2023-05-11T02:00:03;95376.81;;;13.51;83.55
25526;BME280;13424;48.424;11.258;2023-05-11T02:02:38;95384.84;;;13.56;83.16
25526;BME280;13424;48.424;11.258;2023-05-11T02:05:05;95375.50;;;13.59;83.46
25526;BME280;13424;48.424;11.258;2023-05-11T02:07:31;95382.63;;;13.33;83.29
25526;BME280;13424;48.424;11.258;2023-05-11T02:09:59;95374.66;;;13.53;83.68
25526;BME280;13424;48.424;11.258;2023-05-11T02:12:26;95381.16;;;13.73;82.66
25526;BME280;13424;48.424;11.258;2023-05-11T02:14:52;95378.06;;;13.33;83.39
25526;BME280;13424;48.424;11.258;2023-05-11T02:17:20;95379.47;;;13.46;83.07
25526;BME280;13424;48.424;11.258;2023-05-11T02:19:47;95373.50;;;13.34;83.42
25526;BME280;13424;48.424;11.258;2023-05-11T02:22:14;95382.69;;;13.43;82.61
25526;BME280;13424;48.424;11.258;2023-05-11T02:28:06;95373.09;;;13.10;83.66
25526;BME280;13424;48.424;11.258;2023-05-11T02:30:42;95375.09;;;13.25;83.33
25526;BME280;13424;48.424;11.258;2023-05-11T02:33:09;95374.38;;;13.45;82.17
25526;BME280;13424;48.424;11.258;2023-05-11T02:35:41;95376.59;;;13.05;83.78
25526;BME280;13424;48.424;11.258;2023-05-11T02:38:08;95370.13;;;13.01;84.06
25526;BME280;13424;48.424;11.258;2023-05-11T02:40:42;95375.66;;;13.32;83.47
25526;BME280;13424;48.424;11.258;2023-05-11T02:43:13;95379.66;;;13.34;83.19
25526;BME280;13424;48.424;11.258;2023-05-11T02:45:47;95373.50;;;13.34;83.29
25526;BME280;13424;48.424;11.258;2023-05-11T02:48:25;95372.28;;;13.04;84.15
25526;BME280;13424;48.424;11.258;2023-05-11T02:50:53;95366.38;;;12.97;85.04
25526;BME280;13424;48.424;11.258;2023-05-11T02:53:27;95367.09;;;13.30;83.60
25526;BME280;13424;48.424;11.258;2023-05-11T02:55:56;95363.31;;;13.26;83.70
25526;BME280;13424;48.424;11.258;2023-05-11T02:58:22;95365.25;;;12.88;85.46
25526;BME280;13424;48.424;11.258;2023-05-11T03:00:57;95373.41;;;13.13;84.90
25526;BME280;13424;48.424;11.258;2023-05-11T03:03:23;95366.19;;;13.19;84.49
25526;BME280;13424;48.424;11.258;2023-05-11T03:05:49;95367.44;;;13.54;83.22
25526;BME280;13424;48.424;11.258;2023-05-11T03:08:15;95365.59;;;13.69;82.98
25526;BME280;13424;48.424;11.258;2023-05-11T03:14:19;95366.63;;;13.53;83.33
25526;BME280;13424;48.424;11.258;2023-05-11T03:16:45;95359.88;;;13.40;83.58
25526;BME280;13424;48.424;11.258;2023-05-11T03:19:13;95368.75;;;13.46;83.27
25526;BME280;13424;48.424;11.258;2023-05-11T03:21:39;95364.47;;;13.50;83.65
25526;BME280;13424;48.424;11.258;2023-05-11T03:24:08;95359.00;;;13.25;84.41
25526;BME280;13424;48.424;11.258;2023-05-11T03:26:35;95354.72;;;13.24;84.33
25526;BME280;13424;48.424;11.258;2023-05-11T03:29:01;95351.44;;;13.17;84.34
25526;BME280;13424;48.424;11.258;2023-05-11T03:31:28;95346.63;;;13.13;84.81
25526;BME280;13424;48.424;11.258;2023-05-11T03:33:55;95352.06;;;13.24;84.41
25526;BME280;13424;48.424;11.258;2023-05-11T03:36:26;95351.94;;;13.08;84.55
25526;BME280;13424;48.424;11.258;2023-05-11T03:38:53;95353.66;;;13.20;84.54
25526;BME280;13424;48.424;11.258;2023-05-11T03:41:21;95347.75;;;13.23;84.82
25526;BME280;13424;48.424;11.258;2023-05-11T03:43:51;95346.06;;;13.06;85.04
25526;BME280;13424;48.424;11.258;2023-05-11T03:46:20;95348.84;;;13.22;84.15
25526;BME280;13424;48.424;11.258;2023-05-11T03:48:47;95348.88;;;12.84;86.17
25526;BME280;13424;48.424;11.258;2023-05-11T03:51:26;95338.59;;;13.13;84.50
25526;BME280;13424;48.424;11.258;2023-05-11T03:53:52;95332.25;;;13.20;84.46
25526;BME280;13424;48.424;11.258;2023-05-11T03:56:19;95342.63;;;13.16;84.53
25526;BME280;13424;48.424;11.258;2023-05-11T03:58:46;95340.06;;;13.36;83.85
25526;BME280;13424;48.424;11.258;2023-05-11T04:01:12;95338.06;;;13.11;84.82
25526;BME280;13424;48.424;11.258;2023-05-11T04:03:48;95336.44;;;13.10;84.71
25526;BME280;13424;48.424;11.258;2023-05-11T04:06:16;95336.59;;;13.46;83.43
25526;BME280;13424;48.424;11.258;2023-05-11T04:08:42;95329.59;;;13.35;83.67
25526;BME280;13424;48.424;11.258;2023-05-11T04:11:14;95334.84;;;13.14;84.03
25526;BME280;13424;48.424;11.258;2023-05-11T04:13:40;95334.81;;;13.09;84.69
25526;BME280;13424;48.424;11.258;2023-05-11T04:16:06;95333.09;;;12.83;86.24
25526;BME280;13424;48.424;11.258;2023-05-11T04:18:33;95329.47;;;13.04;85.16
25526;BME280;13424;48.424;11.258;2023-05-11T04:20:58;95329.44;;;12.99;85.19
25526;BME280;13424;48.424;11.258;2023-05-11T04:23:25;95326.25;;;13.07;84.86
25526;BME280;13424;48.424;11.258;2023-05-11T04:25:55;95334.84;;;13.14;84.76
25526;BME280;13424;48.424;11.258;2023-05-11T04:28:21;95327.69;;;13.20;83.95
25526;BME280;13424;48.424;11.258;2023-05-11T04:30:53;95332.97;;;13.15;84.39
25526;BME280;13424;48.424;11.258;2023-05-11T04:33:20;95330.00;;;13.06;84.82
25526;BME280;13424;48.424;11.258;2023-05-11T04:35:46;95336.91;;;12.97;85.61
25526;BME280;13424;48.424;11.258;2023-05-11T04:39:08;95334.50;;;13.01;85.57
25526;BME280;13424;48.424;11.258;2023-05-11T04:41:37;95335.75;;;13.30;84.13
25526;BME280;13424;48.424;11.258;2023-05-11T04:44:03;95338.16;;;13.32;84.67
25526;BME280;13424;48.424;11.258;2023-05-11T04:46:29;95330.16;;;13.37;83.72
25526;BME280;13424;48.424;11.258;2023-05-11T04:48:55;95339.66;;;13.18;84.81
25526;BME280;13424;48.424;11.258;2023-05-11T04:51:21;95340.31;;;13.30;84.09
25526;BME280;13424;48.424;11.258;2023-05-11T04:53:48;95337.13;;;13.48;83.49
25526;BME280;13424;48.424;11.258;2023-05-11T04:56:14;95343.00;;;13.40;83.63
25526;BME280;13424;48.424;11.258;2023-05-11T04:58:41;95344.66;;;13.51;83.45
25526;BME280;13424;48.424;11.258;2023-05-11T05:01:07;95340.22;;;13.14;84.85
25526;BME280;13424;48.424;11.258;2023-05-11T05:03:33;95344.94;;;13.55;83.56
25526;BME280;13424;48.424;11.258;2023-05-11T05:09:33;95346.34;;;13.93;82.66
25526;BME280;13424;48.424;11.258;2023-05-11T05:12:02;95346.34;;;13.83;83.12
25526;BME280;13424;48.424;11.258;2023-05-11T05:14:28;95345.25;;;13.68;82.76
25526;BME280;13424;48.424;11.258;2023-05-11T05:16:54;95342.84;;;13.87;82.51
25526;BME280;13424;48.424;11.258;2023-05-11T05:19:20;95342.31;;;13.75;82.41
25526;BME280;13424;48.424;11.258;2023-05-11T05:21:48;95340.47;;;13.91;82.57
25526;BME280;13424;48.424;11.258;2023-05-11T05:24:14;95345.22;;;13.63;82.97
25526;BME280;13424;48.424;11.258;2023-05-11T05:26:40;95348.88;;;13.32;83.97
25526;BME280;13424;48.424;11.258;2023-05-11T05:29:05;95343.81;;;13.40;84.48
25526;BME280;13424;48.424;11.258;2023-05-11T05:31:41;95343.28;;;13.49;83.87
25526;BME280;13424;48.424;11.258;2023-05-11T05:34:07;95350.31;;;13.65;83.66
25526;BME280;13424;48.424;11.258;2023-05-11T05:36:34;95357.88;;;13.93;82.41
25526;BME280;13424;48.424;11.258;2023-05-11T05:39:00;95353.78;;;13.65;83.10
25526;BME280;13424;48.424;11.258;2023-05-11T05:41:28;95354.66;;;13.86;82.84
25526;BME280;13424;48.424;11.258;2023-05-11T05:43:54;95356.78;;;13.84;82.60
25526;BME280;13424;48.424;11.258;2023-05-11T05:46:20;95355.38;;;13.56;84.00
25526;BME280;13424;48.424;11.258;2023-05-11T05:48:46;95358.69;;;13.99;82.87
25526;BME280;13424;48.424;11.258;2023-05-11T05:51:12;95352.75;;;13.72;83.68
25526;BME280;13424;48.424;11.258;2023-05-11T05:53:38;95357.84;;;13.88;82.62
25526;BME280;13424;48.424;11.258;2023-05-11T05:56:04;95365.63;;;13.90;83.24
25526;BME280;13424;48.424;11.258;2023-05-11T05:58:31;95362.44;;;14.03;82.83
25526;BME280;13424;48.424;11.258;2023-05-11T06:00:56;95359.19;;;13.86;83.01
25526;BME280;13424;48.424;11.258;2023-05-11T06:03:22;95363.50;;;14.12;82.20
25526;BME280;13424;48.424;11.258;2023-05-11T06:05:48;95364.06;;;14.30;81.18
25526;BME280;13424;48.424;11.258;2023-05-11T06:08:14;95365.69;;;14.41;81.48
25526;BME280;13424;48.424;11.258;2023-05-11T06:10:40;95370.50;;;14.29;81.72
25526;BME280;13424;48.424;11.258;2023-05-11T06:13:08;95364.88;;;14.20;82.44
25526;BME280;13424;48.424;11.258;2023-05-11T06:15:35;95368.34;;;14.36;81.83
25526;BME280;13424;48.424;11.258;2023-05-11T06:18:08;95372.13;;;14.35;81.70
25526;BME280;13424;48.424;11.258;2023-05-11T06:20:34;95363.28;;;14.55;81.45
25526;BME280;13424;48.424;11.258;2023-05-11T06:23:00;95367.28;;;14.67;81.29
25526;BME280;13424;48.424;11.258;2023-05-11T06:25:26;95363.81;;;14.51;81.72
25526;BME280;13424;48.424;11.258;2023-05-11T06:27:52;95366.75;;;14.35;81.95
25526;BME280;13424;48.424;11.258;2023-05-11T06:30:18;95370.53;;;14.54;81.01
25526;BME280;13424;48.424;11.258;2023-05-11T06:32:47;95365.97;;;14.39;81.18
25526;BME280;13424;48.424;11.258;2023-05-11T06:35:15;95362.19;;;14.35;81.41
25526;BME280;13424;48.424;11.258;2023-05-11T06:37:51;95369.16;;;14.36;81.71
25526;BME280;13424;48.424;11.258;2023-05-11T06:40:17;95367.81;;;14.79;81.03
25526;BME280;13424;48.424;11.258;2023-05-11T06:42:43;95368.38;;;14.71;81.14
25526;BME280;13424;48.424;11.258;2023-05-11T06:45:11;95363.53;;;14.73;80.78
25526;BME280;13424;48.424;11.258;2023-05-11T06:47:40;95364.06;;;14.40;81.81
25526;BME280;13424;48.424;11.258;2023-05-11T06:50:06;95363.81;;;14.57;81.20
25526;BME280;13424;48.424;11.258;2023-05-11T06:52:36;95366.22;;;14.58;81.76
25526;BME280;13424;48.424;11.258;2023-05-11T06:55:02;95352.50;;;14.95;80.96
25526;BME280;13424;48.424;11.258;2023-05-11T06:57:29;95371.78;;;15.13;80.04
25526;BME280;13424;48.424;11.258;2023-05-11T06:59:54;95368.88;;;14.94;80.09
25526;BME280;13424;48.424;11.258;2023-05-11T07:02:20;95371.59;;;14.73;81.18
25526;BME280;13424;48.424;11.258;2023-05-11T07:04:46;95372.00;;;15.16;79.29
25526;BME280;13424;48.424;11.258;2023-05-11T07:07:12;95368.28;;;15.17;79.57
25526;BME280;13424;48.424;11.258;2023-05-11T07:09:37;95364.28;;;15.10;79.77
25526;BME280;13424;48.424;11.258;2023-05-11T07:12:03;95368.84;;;15.09;79.44
25526;BME280;13424;48.424;11.258;2023-05-11T07:14:29;95364.75;;;15.22;79.13
25526;BME280;13424;48.424;11.258;2023-05-11T07:16:55;95365.59;;;15.12;79.42
25526;BME280;13424;48.424;11.258;2023-05-11T07:19:21;95369.38;;;15.06;79.40
25526;BME280;13424;48.424;11.258;2023-05-11T07:21:47;95367.47;;;15.06;79.82
25526;BME280;13424;48.424;11.258;2023-05-11T07:24:13;95362.06;;;15.27;79.14
25526;BME280;13424;48.424;11.258;2023-05-11T07:26:51;95366.72;;;15.01;80.13
25526;BME280;13424;48.424;11.258;2023-05-11T07:29:17;95368.22;;;15.27;78.53
25526;BME280;13424;48.424;11.258;2023-05-11T07:31:42;95371.81;;;15.02;78.64
25526;BME280;13424;48.424;11.258;2023-05-11T07:34:08;95358.56;;;15.21;79.99
25526;BME280;13424;48.424;11.258;2023-05-11T07:36:34;95364.75;;;15.27;79.64
25526;BME280;13424;48.424;11.258;2023-05-11T07:39:00;95370.53;;;15.59;78.68
25526;BME280;13424;48.424;11.258;2023-05-11T07:41:26;95364.88;;;15.56;77.95
25526;BME280;13424;48.424;11.258;2023-05-11T07:43:53;95368.66;;;15.65;78.24
25526;BME280;13424;48.424;11.258;2023-05-11T07:46:19;95372.13;;;15.66;77.65
25526;BME280;13424;48.424;11.258;2023-05-11T07:48:45;95367.03;;;15.64;76.88
25526;BME280;13424;48.424;11.258;2023-05-11T07:51:11;95363.31;;;15.50;77.51
25526;BME280;13424;48.424;11.258;2023-05-11T07:53:37;95369.78;;;15.39;78.40
25526;BME280;13424;48.424;11.258;2023-05-11T07:56:06;95374.25;;;15.69;78.47
25526;BME280;13424;48.424;11.258;2023-05-11T07:58:32;95369.56;;;15.35;79.57
25526;BME280;13424;48.424;11.258;2023-05-11T08:00:57;95372.72;;;15.47;78.06
25526;BME280;13424;48.424;11.258;2023-05-11T08:03:23;95367.59;;;15.51;78.07
25526;BME280;13424;48.424;11.258;2023-05-11T08:05:49;95367.09;;;15.49;78.56
25526;BME280;13424;48.424;11.258;2023-05-11T08:08:15;95369.59;;;15.15;78.84
25526;BME280;13424;48.424;11.258;2023-05-11T08:10:41;95368.75;;;15.24;79.36
25526;BME280;13424;48.424;11.258;2023-05-11T08:13:07;95365.50;;;15.38;78.78
25526;BME280;13424;48.424;11.258;2023-05-11T08:15:33;95373.34;;;15.24;79.71
25526;BME280;13424;48.424;11.258;2023-05-11T08:17:59;95361.38;;;14.86;79.73
25526;BME280;13424;48.424;11.258;2023-05-11T08:20:26;95358.41;;;14.77;80.17
25526;BME280;13424;48.424;11.258;2023-05-11T08:22:52;95363.72;;;15.18;78.95
25526;BME280;13424;48.424;11.258;2023-05-11T08:25:18;95362.91;;;15.17;78.61
25526;BME280;13424;48.424;11.258;2023-05-11T08:27:44;95363.50;;;14.94;79.57
25526;BME280;13424;48.424;11.258;2023-05-11T08:30:10;95366.88;;;15.30;79.42
25526;BME280;13424;48.424;11.258;2023-05-11T08:32:36;95361.44;;;15.40;78.92
25526;BME280;13424;48.424;11.258;2023-05-11T08:35:02;95370.34;;;15.41;79.09
25526;BME280;13424;48.424;11.258;2023-05-11T08:37:31;95363.84;;;15.52;79.01
25526;BME280;13424;48.424;11.258;2023-05-11T08:39:57;95368.19;;;15.38;78.66
25526;BME280;13424;48.424;11.258;2023-05-11T08:42:24;95367.66;;;15.41;79.66
25526;BME280;13424;48.424;11.258;2023-05-11T08:44:50;95361.13;;;15.57;79.26
25526;BME280;13424;48.424;11.258;2023-05-11T08:47:19;95357.31;;;15.73;78.32
25526;BME280;13424;48.424;11.258;2023-05-11T08:49:45;95358.56;;;15.86;76.75
25526;BME280;13424;48.424;11.258;2023-05-11T08:52:12;95364.75;;;15.86;77.40
25526;BME280;13424;48.424;11.258;2023-05-11T08:54:38;95362.13;;;15.71;77.57
25526;BME280;13424;48.424;11.258;2023-05-11T08:57:04;95363.22;;;14.95;80.00
25526;BME280;13424;48.424;11.258;2023-05-11T08:59:31;95363.84;;;15.47;77.70
25526;BME280;13424;48.424;11.258;2023-05-11T09:01:58;95358.81;;;15.35;77.84
25526;BME280;13424;48.424;11.258;2023-05-11T09:04:25;95367.25;;;14.98;78.42
25526;BME280;13424;48.424;11.258;2023-05-11T09:06:52;95364.50;;;15.13;78.48
25526;BME280;13424;48.424;11.258;2023-05-11T09:09:17;95365.06;;;15.05;79.22
25526;BME280;13424;48.424;11.258;2023-05-11T09:11:44;95368.28;;;15.17;78.70
25526;BME280;13424;48.424;11.258;2023-05-11T09:14:11;95361.66;;;14.69;81.16
25526;BME280;13424;48.424;11.258;2023-05-11T09:16:38;95364.59;;;14.83;79.99
25526;BME280;13424;48.424;11.258;2023-05-11T09:19:04;95367.75;;;15.10;79.46
25526;BME280;13424;48.424;11.258;2023-05-11T09:21:31;95365.91;;;15.75;76.93
25526;BME280;13424;48.424;11.258;2023-05-11T09:23:57;95368.41;;;16.06;75.74
25526;BME280;13424;48.424;11.258;2023-05-11T09:26:26;95362.94;;;15.72;75.79
25526;BME280;13424;48.424;11.258;2023-05-11T09:28:57;95364.31;;;16.13;75.69
25526;BME280;13424;48.424;11.258;2023-05-11T09:31:44;95369.69;;;16.47;75.58
25526;BME280;13424;48.424;11.258;2023-05-11T09:34:21;95365.03;;;16.24;74.54
25526;BME280;13424;48.424;11.258;2023-05-11T09:36:51;95372.69;;;16.12;73.61
25526;BME280;13424;48.424;11.258;2023-05-11T09:39:28;95367.00;;;15.69;74.50
25526;BME280;13424;48.424;11.258;2023-05-11T09:42:16;95362.94;;;16.16;74.81
25526;BME280;13424;48.424;11.258;2023-05-11T09:44:43;95364.41;;;16.37;74.80
25526;BME280;13424;48.424;11.258;2023-05-11T09:47:15;95366.25;;;16.42;75.81
25526;BME280;13424;48.424;11.258;2023-05-11T09:49:45;95359.03;;;16.71;74.21
25526;BME280;13424;48.424;11.258;2023-05-11T09:52:15;95357.16;;;16.67;74.27
25526;BME280;13424;48.424;11.258;2023-05-11T09:54:42;95358.94;;;16.47;74.68
25526;BME280;13424;48.424;11.258;2023-05-11T09:59:52;95354.25;;;15.90;76.25
25526;BME280;13424;48.424;11.258;2023-05-11T10:02:30;95350.34;;;15.72;76.14
25526;BME280;13424;48.424;11.258;2023-05-11T10:04:58;95360.25;;;15.77;76.64
25526;BME280;13424;48.424;11.258;2023-05-11T10:07:31;95353.94;;;15.97;75.99
25526;BME280;13424;48.424;11.258;2023-05-11T10:10:04;95349.47;;;15.77;76.56
25526;BME280;13424;48.424;11.258;2023-05-11T10:12:31;95357.75;;;15.85;75.95
25526;BME280;13424;48.424;11.258;2023-05-11T10:15:08;95359.25;;;16.07;75.46
25526;BME280;13424;48.424;11.258;2023-05-11T10:17:35;95353.38;;;16.00;76.05
25526;BME280;13424;48.424;11.258;2023-05-11T10:20:04;95351.91;;;16.17;75.99
25526;BME280;13424;48.424;11.258;2023-05-11T10:22:30;95346.94;;;14.46;80.95
25526;BME280;13424;48.424;11.258;2023-05-11T10:24:57;95359.03;;;15.44;77.88
25526;BME280;13424;48.424;11.258;2023-05-11T10:27:24;95351.94;;;15.68;76.44
25526;BME280;13424;48.424;11.258;2023-05-11T10:29:50;95348.91;;;15.15;77.31
25526;BME280;13424;48.424;11.258;2023-05-11T10:32:18;95351.03;;;15.28;77.18
25526;BME280;13424;48.424;11.258;2023-05-11T10:34:45;95351.28;;;15.32;75.71
25526;BME280;13424;48.424;11.258;2023-05-11T10:37:13;95349.41;;;15.32;75.16
25526;BME280;13424;48.424;11.258;2023-05-11T10:39:40;95346.09;;;15.51;75.37
25526;BME280;13424;48.424;11.258;2023-05-11T10:43:02;95348.38;;;15.83;75.22
25526;BME280;13424;48.424;11.258;2023-05-11T10:45:56;95349.31;;;15.48;74.63
25526;BME280;13424;48.424;11.258;2023-05-11T10:52:04;95347.94;;;15.66;75.30
25526;BME280;13424;48.424;11.258;2023-05-11T10:58:02;95349.28;;;15.63;75.39
25526;BME280;13424;48.424;11.258;2023-05-11T11:01:19;95347.69;;;15.62;75.46
25526;BME280;13424;48.424;11.258;2023-05-11T11:04:17;95345.84;;;15.47;76.01
25526;BME280;13424;48.424;11.258;2023-05-11T11:06:45;95347.69;;;16.40;73.84
25526;BME280;13424;48.424;11.258;2023-05-11T11:09:13;95353.25;;;16.20;74.90
25526;BME280;13424;48.424;11.258;2023-05-11T11:11:45;95346.06;;;14.86;77.84
25526;BME280;13424;48.424;11.258;2023-05-11T11:14:13;95345.66;;;15.23;77.17
25526;BME280;13424;48.424;11.258;2023-05-11T11:16:40;95343.22;;;15.86;75.79
25526;BME280;13424;48.424;11.258;2023-05-11T11:19:45;95347.59;;;16.16;75.26
25526;BME280;13424;48.424;11.258;2023-05-11T11:25:03;95343.69;;;16.04;76.96
25526;BME280;13424;48.424;11.258;2023-05-11T11:30:21;95338.75;;;16.11;76.21
25526;BME280;13424;48.424;11.258;2023-05-11T11:32:49;95346.31;;;16.09;75.71
25526;BME280;13424;48.424;11.258;2023-05-11T11:38:11;95335.06;;;16.02;75.74
25526;BME280;13424;48.424;11.258;2023-05-11T11:40:45;95329.22;;;16.29;74.94
25526;BME280;13424;48.424;11.258;2023-05-11T11:43:24;95337.41;;;16.47;74.80
25526;BME280;13424;48.424;11.258;2023-05-11T11:45:57;95341.75;;;16.43;75.12
25526;BME280;13424;48.424;11.258;2023-05-11T11:48:37;95335.66;;;16.62;73.74
25526;BME280;13424;48.424;11.258;2023-05-11T11:51:06;95338.00;;;16.39;74.02
25526;BME280;13424;48.424;11.258;2023-05-11T12:01:18;95329.94;;;16.97;73.02
25526;BME280;13424;48.424;11.258;2023-05-11T12:03:50;95333.13;;;16.41;74.45
25526;BME280;13424;48.424;11.258;2023-05-11T12:06:20;95335.22;;;15.81;76.23
25526;BME280;13424;48.424;11.258;2023-05-11T12:08:47;95333.84;;;16.23;74.85
25526;BME280;13424;48.424;11.258;2023-05-11T12:11:16;95338.91;;;16.59;73.93
25526;BME280;13424;48.424;11.258;2023-05-11T12:13:42;95339.28;;;15.74;76.22
25526;BME280;13424;48.424;11.258;2023-05-11T12:16:16;95338.16;;;15.25;76.73
25526;BME280;13424;48.424;11.258;2023-05-11T12:18:58;95336.81;;;15.82;76.51
25526;BME280;13424;48.424;11.258;2023-05-11T12:21:26;95341.25;;;14.68;79.80
25526;BME280;13424;48.424;11.258;2023-05-11T12:24:02;95338.47;;;15.08;79.97
25526;BME280;13424;48.424;11.258;2023-05-11T12:26:30;95339.41;;;14.07;79.57
25526;BME280;13424;48.424;11.258;2023-05-11T12:29:10;95346.09;;;14.35;78.10
25526;BME280;13424;48.424;11.258;2023-05-11T12:31:43;95340.75;;;14.15;79.98
25526;BME280;13424;48.424;11.258;2023-05-11T12:34:17;95340.91;;;15.10;78.17
25526;BME280;13424;48.424;11.258;2023-05-11T12:36:44;95332.69;;;14.66;78.86
25526;BME280;13424;48.424;11.258;2023-05-11T12:39:25;95333.28;;;15.32;77.02
25526;BME280;13424;48.424;11.258;2023-05-11T12:41:54;95334.16;;;15.77;76.20
25526;BME280;13424;48.424;11.258;2023-05-11T12:44:22;95335.41;;;15.41;75.59
25526;BME280;13424;48.424;11.258;2023-05-11T12:46:48;95330.47;;;16.02;73.97
25526;BME280;13424;48.424;11.258;2023-05-11T12:49:20;95333.03;;;15.24;76.18
25526;BME280;13424;48.424;11.258;2023-05-11T12:51:51;95332.22;;;15.28;76.75
25526;BME280;13424;48.424;11.258;2023-05-11T12:54:33;95328.69;;;14.48;79.29
25526;BME280;13424;48.424;11.258;2023-05-11T12:57:00;95330.88;;;15.85;77.08
25526;BME280;13424;48.424;11.258;2023-05-11T12:59:37;95329.66;;;16.07;76.30
25526;BME280;13424;48.424;11.258;2023-05-11T13:02:18;95326.34;;;15.16;78.05
25526;BME280;13424;48.424;11.258;2023-05-11T13:04:46;95318.94;;;15.57;76.24
25526;BME280;13424;48.424;11.258;2023-05-11T13:07:13;95325.88;;;16.08;75.32
25526;BME280;13424;48.424;11.258;2023-05-11T13:10:00;95318.59;;;15.69;77.06
25526;BME280;13424;48.424;11.258;2023-05-11T13:12:27;95311.91;;;16.06;75.75
25526;BME280;13424;48.424;11.258;2023-05-11T13:15:10;95318.41;;;16.00;75.41
25526;BME280;13424;48.424;11.258;2023-05-11T13:17:41;95313.91;;;14.10;83.56
25526;BME280;13424;48.424;11.258;2023-05-11T13:20:33;95314.13;;;15.99;77.94
25526;BME280;13424;48.424;11.258;2023-05-11T13:23:06;95310.88;;;14.88;79.14
25526;BME280;13424;48.424;11.258;2023-05-11T13:25:34;95308.03;;;15.33;78.05
25526;BME280;13424;48.424;11.258;2023-05-11T13:28:16;95306.25;;;15.68;76.76
25526;BME280;13424;48.424;11.258;2023-05-11T13:30:43;95311.53;;;15.83;76.34
25526;BME280;13424;48.424;11.258;2023-05-11T13:33:09;95309.94;;;15.77;77.44
25526;BME280;13424;48.424;11.258;2023-05-11T13:35:39;95302.78;;;15.57;76.02
25526;BME280;13424;48.424;11.258;2023-05-11T13:38:06;95306.81;;;15.60;76.23
25526;BME280;13424;48.424;11.258;2023-05-11T13:40:33;95299.59;;;16.00;76.34
25526;BME280;13424;48.424;11.258;2023-05-11T13:42:59;95299.88;;;16.27;76.45
25526;BME280;13424;48.424;11.258;2023-05-11T13:45:25;95292.81;;;15.63;77.83
25526;BME280;13424;48.424;11.258;2023-05-11T13:47:52;95301.75;;;15.98;78.24
25526;BME280;13424;48.424;11.258;2023-05-11T13:50:21;95294.88;;;14.47;80.29
25526;BME280;13424;48.424;11.258;2023-05-11T13:52:47;95303.44;;;14.69;79.02
25526;BME280;13424;48.424;11.258;2023-05-11T13:58:45;95294.50;;;15.49;76.42
25526;BME280;13424;48.424;11.258;2023-05-11T14:01:11;95292.41;;;14.61;80.18